Time;durP1;ratioP1;P1;durP2;ratioP2;P2;SDS_P1;SDS_P2;PMS_P1;PMS_P2;Temp;Humidity;BMP_temperature;BMP_pressure;BME280_temperature;BME280_humidity;BME280_pressure;Samples;Min_cycle;Max_cycle;Signal;HPM_P1;HPM_P2
2022/05/16 00:00:38;;;;;;;8.15;3.53;;;;;;;14.38;58.78;101735.59;4991042;28;119550;-75
2022/05/16 00:03:06;;;;;;;7.57;3.03;;;;;;;14.37;59.03;101739.56;4989466;28;119671;-75
2022/05/16 00:05:32;;;;;;;6.80;2.70;;;;;;;14.35;58.66;101745.56;5008856;28;119902;-76
2022/05/16 00:07:58;;;;;;;7.25;3.15;;;;;;;14.33;58.51;101738.94;5009935;28;119358;-75
2022/05/16 00:10:24;;;;;;;9.23;3.00;;;;;;;14.28;58.82;101734.00;5009375;28;119926;-76
2022/05/16 00:12:51;;;;;;;9.77;3.50;;;;;;;14.27;58.77;101733.25;4991630;28;119712;-75
2022/05/16 00:15:21;;;;;;;5.85;2.85;;;;;;;14.26;59.26;101733.69;5014195;28;119511;-75
2022/05/16 00:17:47;;;;;;;7.07;3.30;;;;;;;14.24;59.01;101738.91;5010384;28;119734;-76
2022/05/16 00:20:14;;;;;;;8.35;3.30;;;;;;;14.26;58.86;101744.72;5007300;28;119284;-75
2022/05/16 00:22:39;;;;;;;7.10;2.88;;;;;;;14.25;59.13;101740.44;5001776;28;119470;-75
2022/05/16 00:25:09;;;;;;;7.25;3.10;;;;;;;14.24;59.50;101734.16;5003798;28;119670;-75
2022/05/16 00:27:34;;;;;;;8.77;3.35;;;;;;;14.20;59.27;101733.50;4973573;28;119277;-75
2022/05/16 00:30:09;;;;;;;6.22;3.08;;;;;;;14.23;59.25;101738.13;5009362;28;119554;-75
2022/05/16 00:32:35;;;;;;;8.48;2.90;;;;;;;14.22;59.42;101730.31;5007138;27;119878;-75
2022/05/16 00:35:08;;;;;;;5.05;2.65;;;;;;;14.18;59.25;101733.16;4989214;28;119584;-75
2022/05/16 00:37:34;;;;;;;7.28;3.45;;;;;;;14.18;59.50;101729.63;5011022;28;120047;-76
2022/05/16 00:40:00;;;;;;;7.32;3.58;;;;;;;14.17;59.56;101742.66;5012206;27;119455;-75
2022/05/16 00:42:25;;;;;;;7.35;3.15;;;;;;;14.16;59.95;101735.59;4998557;28;121557;-75
2022/05/16 00:44:54;;;;;;;7.25;2.85;;;;;;;14.16;59.69;101740.34;5010717;28;119770;-75
2022/05/16 00:47:20;;;;;;;11.27;3.10;;;;;;;14.13;59.46;101739.25;4979046;28;119723;-75
2022/05/16 00:49:49;;;;;;;7.22;2.80;;;;;;;14.10;59.33;101729.91;5006989;28;119597;-75
2022/05/16 00:52:28;;;;;;;6.43;3.20;;;;;;;14.11;58.99;101733.44;5014650;27;120044;-75
2022/05/16 00:54:55;;;;;;;6.32;2.63;;;;;;;14.08;58.66;101732.34;4998071;28;120469;-75
2022/05/16 00:57:29;;;;;;;6.38;3.33;;;;;;;14.06;59.00;101740.28;5015261;27;120990;-75
2022/05/16 01:00:03;;;;;;;9.40;3.03;;;;;;;13.91;58.88;101708.91;5020411;28;119701;-77
2022/05/16 01:05:16;;;;;;;7.60;3.13;;;;;;;13.97;59.14;101734.72;5012838;28;119719;-77
2022/05/16 01:07:44;;;;;;;6.63;3.20;;;;;;;13.95;59.22;101734.38;5015585;28;119372;-77
2022/05/16 01:10:14;;;;;;;6.22;2.83;;;;;;;13.94;59.84;101741.09;4996931;28;120665;-77
2022/05/16 01:12:43;;;;;;;7.72;2.72;;;;;;;13.94;59.61;101735.59;4992850;28;119502;-75
2022/05/16 01:15:32;;;;;;;7.13;2.90;;;;;;;13.92;59.57;101724.25;5006599;28;119279;-75
2022/05/16 01:17:58;;;;;;;7.38;2.63;;;;;;;13.91;59.24;101727.44;5013543;28;119467;-75
2022/05/16 01:20:47;;;;;;;4.75;2.50;;;;;;;13.87;58.80;101716.53;4998288;28;119687;-74
2022/05/16 01:23:16;;;;;;;10.13;3.25;;;;;;;13.84;58.79;101722.97;5000422;28;119494;-75
2022/05/16 01:25:42;;;;;;;6.53;2.88;;;;;;;13.78;59.31;101713.72;5015119;28;119493;-74
2022/05/16 01:28:08;;;;;;;6.45;2.40;;;;;;;13.78;59.37;101716.47;4997814;28;119324;-75
2022/05/16 01:30:36;;;;;;;5.93;2.95;;;;;;;13.80;59.60;101719.56;4995930;28;120789;-74
2022/05/16 01:33:05;;;;;;;6.82;2.90;;;;;;;13.76;59.23;101713.41;5012666;27;119565;-76
2022/05/16 01:35:31;;;;;;;5.82;2.38;;;;;;;13.73;58.59;101706.03;5014926;28;119520;-74
2022/05/16 01:40:43;;;;;;;6.57;2.92;;;;;;;13.64;59.13;101703.94;5006523;28;119635;-75
2022/05/16 01:43:09;;;;;;;8.07;2.88;;;;;;;13.66;58.78;101707.03;5000617;28;119408;-75
2022/05/16 01:45:38;;;;;;;6.43;2.60;;;;;;;13.62;58.71;101698.13;4998185;28;119339;-76
2022/05/16 01:48:04;;;;;;;8.35;2.67;;;;;;;13.60;58.77;101697.03;5012695;28;119248;-76
2022/05/16 01:50:30;;;;;;;8.35;2.92;;;;;;;13.61;59.28;101701.31;5015130;28;119957;-75
2022/05/16 01:52:56;;;;;;;8.13;2.97;;;;;;;13.56;59.13;101697.16;5011495;27;119510;-78
2022/05/16 01:55:21;;;;;;;6.68;2.85;;;;;;;13.58;59.47;101696.69;5006568;28;119786;-74
2022/05/16 01:57:47;;;;;;;7.53;3.25;;;;;;;13.55;59.20;101692.09;5010991;28;120094;-74
2022/05/16 02:00:15;;;;;;;8.82;3.28;;;;;;;13.56;58.91;101688.09;5012114;28;119439;-75
2022/05/16 02:02:42;;;;;;;7.07;2.65;;;;;;;13.52;59.19;101679.97;5009257;28;119798;-75
2022/05/16 02:05:19;;;;;;;6.68;2.83;;;;;;;13.50;59.39;101682.41;5015758;28;119731;-75
2022/05/16 02:07:51;;;;;;;6.72;3.17;;;;;;;13.46;59.05;101682.50;4975054;28;120862;-75
2022/05/16 02:10:23;;;;;;;6.72;2.95;;;;;;;13.48;59.39;101677.31;5000574;28;119296;-75
2022/05/16 02:12:50;;;;;;;6.93;2.90;;;;;;;13.47;59.59;101678.53;4977019;28;119854;-75
2022/05/16 02:15:22;;;;;;;6.03;2.65;;;;;;;13.49;60.00;101675.34;4993063;28;119568;-75
2022/05/16 02:17:48;;;;;;;5.10;2.60;;;;;;;13.49;60.04;101664.31;4992798;28;121721;-75
2022/05/16 02:20:15;;;;;;;6.57;3.10;;;;;;;13.54;59.65;101679.53;5011295;28;119528;-76
2022/05/16 02:25:26;;;;;;;7.10;3.00;;;;;;;13.55;60.15;101670.03;5002445;28;120143;-75
2022/05/16 02:27:53;;;;;;;5.35;2.90;;;;;;;13.61;60.62;101676.50;5014773;28;119678;-75
2022/05/16 02:30:22;;;;;;;6.32;2.85;;;;;;;13.63;60.57;101671.31;4990024;28;120061;-77
2022/05/16 02:32:49;;;;;;;11.18;3.53;;;;;;;13.70;60.57;101673.81;5007204;28;120072;-75
2022/05/16 02:35:15;;;;;;;6.55;2.83;;;;;;;13.74;60.27;101674.47;5012074;28;119333;-75
2022/05/16 02:37:41;;;;;;;5.22;2.80;;;;;;;13.77;60.85;101679.09;5008432;28;119743;-75
2022/05/16 02:40:08;;;;;;;5.05;3.22;;;;;;;13.78;60.73;101675.88;5007805;28;119707;-76
2022/05/16 02:42:35;;;;;;;9.32;3.38;;;;;;;13.84;60.57;101681.59;5007392;27;119341;-75
2022/05/16 02:45:03;;;;;;;6.10;3.05;;;;;;;13.89;60.84;101686.53;4991829;27;119888;-74
2022/05/16 02:47:28;;;;;;;5.43;2.63;;;;;;;13.89;60.53;101683.78;4990693;28;119538;-75
2022/05/16 02:49:54;;;;;;;10.95;3.30;;;;;;;13.85;60.24;101677.63;4992981;28;119385;-75
2022/05/16 02:52:20;;;;;;;7.05;2.70;;;;;;;13.94;60.92;101691.47;5011000;27;119353;-77
2022/05/16 02:54:46;;;;;;;8.52;2.75;;;;;;;13.98;60.96;101688.59;5009009;28;119763;-75
2022/05/16 02:57:11;;;;;;;7.10;3.17;;;;;;;14.00;61.26;101684.16;4989867;28;121106;-75
2022/05/16 02:59:38;;;;;;;8.05;2.97;;;;;;;14.05;61.25;101680.81;4995517;28;119757;-75
2022/05/16 03:02:09;;;;;;;7.22;2.78;;;;;;;14.08;61.26;101679.91;5009071;28;119782;-75
2022/05/16 03:04:36;;;;;;;6.07;3.08;;;;;;;14.10;61.21;101680.25;5006452;28;120183;-75
2022/05/16 03:07:05;;;;;;;5.70;2.80;;;;;;;14.14;61.71;101678.09;4993709;28;119736;-75
2022/05/16 03:09:33;;;;;;;7.55;3.05;;;;;;;14.18;61.49;101691.00;5010011;28;120783;-77
2022/05/16 03:11:59;;;;;;;9.63;3.28;;;;;;;14.22;62.02;101680.63;4994679;28;122217;-75
2022/05/16 03:14:26;;;;;;;5.82;3.10;;;;;;;14.24;61.50;101680.94;5011334;28;119730;-75
2022/05/16 03:16:52;;;;;;;10.45;2.83;;;;;;;14.26;61.92;101676.50;5010395;28;119795;-75
2022/05/16 03:19:18;;;;;;;7.90;2.92;;;;;;;14.32;61.68;101671.16;4992049;28;119790;-75
2022/05/16 03:21:44;;;;;;;7.80;3.20;;;;;;;14.31;61.20;101662.13;5010917;28;119583;-74
2022/05/16 03:24:10;;;;;;;6.88;3.00;;;;;;;14.34;61.42;101660.44;5005564;28;120063;-74
2022/05/16 03:26:40;;;;;;;6.60;2.75;;;;;;;14.35;61.39;101657.22;5001207;28;119732;-75
2022/05/16 03:29:06;;;;;;;10.88;3.60;;;;;;;14.38;61.61;101661.84;4991232;28;119696;-75
2022/05/16 03:31:34;;;;;;;7.43;3.22;;;;;;;14.43;61.59;101663.25;4971906;28;119960;-76
2022/05/16 03:33:59;;;;;;;8.10;3.17;;;;;;;14.46;61.02;101650.56;5011191;28;119451;-77
2022/05/16 03:36:31;;;;;;;6.63;3.10;;;;;;;14.46;61.00;101656.84;5008477;28;119283;-75
2022/05/16 03:41:41;;;;;;;8.10;3.47;;;;;;;14.52;61.14;101655.03;5011143;27;120095;-74
2022/05/16 03:44:07;;;;;;;9.20;3.35;;;;;;;14.55;61.22;101656.88;4991760;28;120044;-75
2022/05/16 03:46:33;;;;;;;9.00;3.20;;;;;;;14.59;61.38;101653.97;4975691;28;119691;-75
2022/05/16 03:48:59;;;;;;;10.65;3.97;;;;;;;14.64;61.27;101661.66;5001798;28;119661;-75
2022/05/16 03:51:25;;;;;;;10.27;3.20;;;;;;;14.70;61.57;101659.88;4992236;27;119692;-75
2022/05/16 03:53:51;;;;;;;7.63;2.92;;;;;;;14.74;61.81;101658.50;5015229;28;119315;-75
2022/05/16 03:56:20;;;;;;;8.25;3.30;;;;;;;14.82;61.90;101669.25;4987978;28;121652;-75
2022/05/16 03:58:46;;;;;;;7.05;2.85;;;;;;;14.87;62.01;101674.19;5007907;28;119309;-75
2022/05/16 04:01:13;;;;;;;7.22;2.90;;;;;;;14.90;61.62;101671.25;4992993;28;119802;-75
2022/05/16 04:03:39;;;;;;;11.98;3.50;;;;;;;14.93;61.93;101667.63;5009934;28;119833;-75
2022/05/16 04:06:04;;;;;;;12.15;3.83;;;;;;;14.97;62.04;101681.28;5007975;28;119669;-75
2022/05/16 04:08:31;;;;;;;7.80;3.65;;;;;;;15.01;62.07;101676.38;5010111;28;119703;-75
2022/05/16 04:10:59;;;;;;;11.35;3.60;;;;;;;15.05;62.24;101679.75;4998118;28;120031;-75
2022/05/16 04:13:26;;;;;;;6.97;2.83;;;;;;;15.08;62.13;101680.84;5009041;28;119671;-75
2022/05/16 04:15:52;;;;;;;7.60;3.22;;;;;;;15.12;62.10;101678.69;5010308;27;119592;-75
2022/05/16 04:18:19;;;;;;;9.55;3.92;;;;;;;15.15;61.71;101684.09;5007365;27;119816;-74
2022/05/16 04:20:48;;;;;;;10.77;4.05;;;;;;;15.18;62.20;101674.88;4992493;28;121973;-75
2022/05/16 04:23:13;;;;;;;11.95;4.07;;;;;;;15.22;62.24;101677.50;5009040;27;120206;-76
2022/05/16 04:25:39;;;;;;;8.15;3.95;;;;;;;15.24;61.40;101681.34;4991542;28;119763;-75
2022/05/16 04:28:07;;;;;;;10.93;4.10;;;;;;;15.30;61.17;101673.19;5010331;28;119186;-79
2022/05/16 04:30:33;;;;;;;12.88;3.85;;;;;;;15.36;61.68;101672.13;5009200;28;119599;-75
2022/05/16 04:32:59;;;;;;;15.18;4.47;;;;;;;15.42;62.03;101680.59;5007861;28;119228;-76
2022/05/16 04:35:25;;;;;;;12.50;3.88;;;;;;;15.49;61.55;101668.47;5010332;28;119531;-75
2022/05/16 04:37:51;;;;;;;9.98;3.90;;;;;;;15.53;61.14;101658.78;4995478;28;119908;-75
2022/05/16 04:40:17;;;;;;;14.05;3.92;;;;;;;15.57;61.56;101653.84;5010505;28;119548;-75
2022/05/16 04:42:48;;;;;;;11.52;4.95;;;;;;;15.63;61.44;101657.59;4990974;28;119487;-76
2022/05/16 04:45:19;;;;;;;13.38;4.93;;;;;;;15.69;61.00;101659.72;5000694;28;119480;-75
2022/05/16 04:47:47;;;;;;;11.73;4.88;;;;;;;15.75;61.48;101652.34;5005935;28;119262;-76
2022/05/16 04:50:15;;;;;;;11.73;4.80;;;;;;;15.81;61.98;101662.31;5008966;28;119985;-74
2022/05/16 04:52:41;;;;;;;14.00;5.10;;;;;;;15.87;61.91;101656.94;5003835;28;119503;-74
2022/05/16 04:55:08;;;;;;;11.32;5.28;;;;;;;15.92;61.52;101648.78;5008932;28;119358;-75
2022/05/16 04:57:35;;;;;;;12.85;5.68;;;;;;;15.94;61.51;101651.84;5007969;28;119500;-75
2022/05/16 05:00:01;;;;;;;16.45;5.20;;;;;;;15.99;61.31;101649.69;4994956;28;119815;-75
2022/05/16 05:02:27;;;;;;;15.70;4.82;;;;;;;16.01;61.39;101658.28;5007835;28;119814;-75
2022/05/16 05:04:52;;;;;;;11.18;4.93;;;;;;;16.04;61.37;101651.84;5009514;28;119914;-75
2022/05/16 05:07:18;;;;;;;15.07;5.63;;;;;;;16.07;61.45;101648.91;5008776;28;119635;-75
2022/05/16 05:15:13;;;;;;;;;;;;;;;16.20;61.44;101641.19;4982251;28;119850;-74
2022/05/16 05:17:40;;;;;;;13.20;5.63;;;;;;;16.26;61.45;101647.63;5007572;28;119480;-77
2022/05/16 05:20:12;;;;;;;11.93;4.90;;;;;;;16.32;61.49;101641.44;5009509;28;120177;-75
2022/05/16 05:22:46;;;;;;;17.08;5.07;;;;;;;16.44;61.56;101646.03;5002421;28;120231;-75
2022/05/16 05:25:17;;;;;;;13.10;4.97;;;;;;;16.54;61.64;101650.28;4991519;28;119832;-76
2022/05/16 05:27:44;;;;;;;9.65;5.32;;;;;;;16.65;61.00;101647.03;5011233;27;119543;-75
2022/05/16 05:30:15;;;;;;;10.52;5.45;;;;;;;16.73;61.17;101651.00;5010816;28;119749;-76
2022/05/16 05:32:42;;;;;;;11.55;4.50;;;;;;;16.82;61.18;101648.97;4995042;28;119604;-76
2022/05/16 05:35:08;;;;;;;14.35;6.00;;;;;;;16.93;61.13;101650.44;5002050;28;119922;-75
2022/05/16 05:37:35;;;;;;;14.30;5.30;;;;;;;16.97;61.26;101649.00;5010836;28;122174;-76
2022/05/16 05:40:03;;;;;;;14.43;5.70;;;;;;;17.08;61.51;101643.72;5006769;28;120015;-76
2022/05/16 05:42:31;;;;;;;15.48;5.22;;;;;;;17.16;61.12;101644.88;4978470;28;120676;-75
2022/05/16 05:44:57;;;;;;;14.82;5.22;;;;;;;17.19;60.71;101637.63;5004499;28;119532;-76
2022/05/16 05:47:23;;;;;;;10.02;5.30;;;;;;;17.27;60.35;101641.59;5010784;28;119504;-75
2022/05/16 05:49:49;;;;;;;9.35;4.60;;;;;;;17.31;60.65;101644.19;5011641;28;119920;-75
2022/05/16 05:52:17;;;;;;;15.80;4.85;;;;;;;17.39;60.63;101646.09;5011137;28;119602;-77
2022/05/16 05:54:45;;;;;;;14.32;5.38;;;;;;;17.46;60.27;101644.97;5005529;28;119551;-75
2022/05/16 05:57:12;;;;;;;11.75;4.72;;;;;;;17.52;60.03;101642.31;5011227;28;119777;-75
2022/05/16 05:59:38;;;;;;;15.20;4.80;;;;;;;17.54;59.81;101632.28;5011928;28;119492;-75
2022/05/16 06:02:06;;;;;;;10.77;4.43;;;;;;;17.60;59.91;101638.69;5012028;28;119636;-78
2022/05/16 06:04:32;;;;;;;17.92;5.35;;;;;;;17.62;59.94;101636.22;5015038;28;121247;-75
2022/05/16 06:06:58;;;;;;;12.35;5.35;;;;;;;17.66;59.55;101636.78;5012512;28;119298;-77
2022/05/16 06:09:23;;;;;;;18.92;5.28;;;;;;;17.68;59.80;101630.78;5010437;28;119526;-75
2022/05/16 06:11:49;;;;;;;13.13;4.60;;;;;;;17.72;60.12;101629.34;4994040;28;119763;-75
2022/05/16 06:14:19;;;;;;;18.73;5.43;;;;;;;17.75;59.72;101639.50;5011969;28;119337;-75
2022/05/16 06:16:45;;;;;;;12.82;5.13;;;;;;;17.77;59.76;101639.81;4992595;28;122813;-75
2022/05/16 06:19:11;;;;;;;16.77;4.85;;;;;;;17.78;59.96;101632.25;5011851;28;119912;-75
2022/05/16 06:21:38;;;;;;;16.88;5.72;;;;;;;17.82;59.24;101630.03;5011708;28;119364;-75
2022/05/16 06:24:04;;;;;;;20.98;4.95;;;;;;;17.80;59.52;101632.53;5010705;28;119445;-75
2022/05/16 06:26:30;;;;;;;26.90;5.63;;;;;;;17.84;59.73;101644.19;4987209;28;119724;-76
2022/05/16 06:28:57;;;;;;;19.15;5.30;;;;;;;17.84;59.48;101646.22;4990784;28;119486;-75
2022/05/16 06:31:23;;;;;;;18.58;5.18;;;;;;;17.86;58.87;101643.72;5007272;28;119456;-75
2022/05/16 06:33:49;;;;;;;17.90;5.03;;;;;;;17.85;59.14;101644.97;5005541;28;119919;-76
2022/05/16 06:36:16;;;;;;;15.07;5.00;;;;;;;17.91;58.89;101649.38;4991056;28;119569;-76
2022/05/16 06:38:42;;;;;;;13.65;5.00;;;;;;;17.94;58.80;101645.63;4990549;28;119413;-75
2022/05/16 06:41:08;;;;;;;19.90;4.88;;;;;;;18.01;58.42;101652.84;5006749;28;119476;-76
2022/05/16 06:43:34;;;;;;;13.32;4.70;;;;;;;17.97;57.88;101638.34;5010983;27;120104;-75
2022/05/16 06:46:04;;;;;;;11.90;4.65;;;;;;;18.09;58.00;101662.31;5011611;28;119391;-75
2022/05/16 06:48:30;;;;;;;13.88;4.53;;;;;;;18.14;57.12;101658.84;5014717;28;119470;-76
2022/05/16 06:50:57;;;;;;;14.82;4.40;;;;;;;18.16;57.44;101666.69;5009685;28;119963;-75
2022/05/16 06:53:27;;;;;;;14.90;5.10;;;;;;;18.21;57.89;101664.00;5009356;28;120504;-75
2022/05/16 06:55:54;;;;;;;17.75;4.25;;;;;;;18.22;57.97;101665.56;4993174;28;122397;-75
2022/05/16 06:58:20;;;;;;;17.20;4.40;;;;;;;18.20;57.44;101665.25;5009526;28;119660;-75
2022/05/16 07:00:46;;;;;;;12.38;3.92;;;;;;;18.24;57.03;101673.41;4998618;28;119910;-76
2022/05/16 07:03:12;;;;;;;16.58;4.68;;;;;;;18.27;57.51;101673.22;5008895;28;119276;-75
2022/05/16 07:05:38;;;;;;;16.27;5.00;;;;;;;18.31;57.43;101673.00;5010550;28;119632;-76
2022/05/16 07:08:05;;;;;;;11.73;4.50;;;;;;;18.31;57.27;101667.47;5009699;27;122173;-76
2022/05/16 07:10:31;;;;;;;14.45;4.30;;;;;;;18.31;57.16;101657.13;5014657;28;121346;-76
2022/05/16 07:12:58;;;;;;;21.98;5.05;;;;;;;18.35;57.19;101660.47;5011246;27;119791;-76
2022/05/16 07:15:24;;;;;;;10.95;3.78;;;;;;;18.35;56.90;101657.69;5008512;28;120256;-75
2022/05/16 07:17:50;;;;;;;15.88;3.70;;;;;;;18.40;56.30;101654.22;5010752;28;119734;-75
2022/05/16 07:20:17;;;;;;;9.43;3.40;;;;;;;18.46;56.00;101664.69;4993308;28;120830;-75
2022/05/16 07:22:48;;;;;;;9.43;3.45;;;;;;;18.48;55.31;101659.41;4991351;28;119997;-76
2022/05/16 07:25:22;;;;;;;11.55;3.88;;;;;;;18.55;55.48;101664.56;4990954;28;119532;-76
2022/05/16 07:27:57;;;;;;;10.50;3.17;;;;;;;18.65;55.33;101666.00;5010679;28;120326;-76
2022/05/16 07:30:24;;;;;;;10.50;3.20;;;;;;;18.72;55.38;101650.94;5007339;28;120063;-75
2022/05/16 07:32:51;;;;;;;9.07;3.28;;;;;;;18.82;54.33;101657.91;5008795;27;119751;-75
2022/05/16 07:35:19;;;;;;;12.60;3.42;;;;;;;18.89;54.88;101663.03;4987809;28;120053;-76
2022/05/16 07:37:48;;;;;;;10.02;3.20;;;;;;;18.98;54.17;101663.69;4976105;28;120112;-79
2022/05/16 07:40:15;;;;;;;13.45;3.58;;;;;;;19.07;53.38;101664.81;4991921;28;121175;-76
2022/05/16 07:42:41;;;;;;;10.25;2.75;;;;;;;19.13;52.63;101668.41;4991139;28;119929;-75
2022/05/16 07:45:07;;;;;;;8.98;3.03;;;;;;;19.20;52.40;101668.78;5008665;28;119642;-77
2022/05/16 07:47:34;;;;;;;10.35;3.03;;;;;;;19.24;51.90;101665.78;5009556;28;119845;-76
2022/05/16 07:50:00;;;;;;;10.07;3.60;;;;;;;19.27;51.88;101667.59;5007508;28;119371;-78
2022/05/16 07:52:27;;;;;;;6.68;3.20;;;;;;;19.28;52.45;101658.00;5002683;27;119580;-75
2022/05/16 07:54:54;;;;;;;11.50;2.95;;;;;;;19.34;52.97;101664.38;5007014;28;119911;-76
2022/05/16 07:57:20;;;;;;;12.82;2.60;;;;;;;19.39;52.31;101649.78;4989238;28;119441;-76
2022/05/16 07:59:46;;;;;;;10.55;2.70;;;;;;;19.52;51.54;101657.75;5009038;28;119467;-77
2022/05/16 08:02:13;;;;;;;15.60;3.40;;;;;;;19.61;51.09;101658.41;4991279;28;120128;-75
2022/05/16 08:04:39;;;;;;;10.02;2.95;;;;;;;19.70;51.27;101654.72;5005648;28;119618;-76
2022/05/16 08:07:05;;;;;;;11.63;2.80;;;;;;;19.86;51.70;101647.75;4989409;28;119488;-75
2022/05/16 08:12:27;;;;;;;8.32;2.80;;;;;;;20.17;50.08;101656.16;5025650;27;119894;-76
2022/05/16 08:14:53;;;;;;;8.88;2.65;;;;;;;20.29;49.60;101648.63;5016400;27;120034;-77
2022/05/16 08:17:20;;;;;;;9.10;2.75;;;;;;;20.38;48.12;101650.50;4989052;28;119772;-75
2022/05/16 08:19:46;;;;;;;9.40;2.67;;;;;;;20.50;48.42;101654.91;5002998;28;119422;-76
2022/05/16 08:22:12;;;;;;;7.38;2.13;;;;;;;20.58;48.22;101646.84;4991705;28;121417;-77
2022/05/16 08:24:37;;;;;;;8.35;2.72;;;;;;;20.61;47.68;101641.06;5008150;28;119703;-76
2022/05/16 08:27:03;;;;;;;12.95;3.00;;;;;;;20.67;48.60;101641.09;5009103;28;119634;-76
2022/05/16 08:29:34;;;;;;;12.55;3.60;;;;;;;20.74;48.94;101632.25;4998535;28;120047;-76
2022/05/16 08:32:03;;;;;;;9.95;3.00;;;;;;;20.90;48.79;101636.41;5008007;28;120020;-76
2022/05/16 08:34:30;;;;;;;12.23;2.90;;;;;;;20.98;48.44;101623.50;5010351;28;119512;-76
2022/05/16 08:39:52;;;;;;;8.23;2.72;;;;;;;21.05;47.34;101634.16;4985284;28;119552;-77
2022/05/16 08:42:23;;;;;;;9.25;3.03;;;;;;;21.01;47.13;101625.28;5007380;27;121422;-76
2022/05/16 08:45:00;;;;;;;7.97;3.40;;;;;;;20.94;45.96;101629.31;5008167;28;119638;-77
2022/05/16 08:47:40;;;;;;;11.60;3.22;;;;;;;21.00;48.42;101618.19;4991493;28;120110;-76
2022/05/16 08:50:14;;;;;;;9.73;2.70;;;;;;;21.09;47.16;101629.13;5007259;28;120062;-76
2022/05/16 08:52:54;;;;;;;;;;;;;;;21.10;46.82;101623.06;4975729;28;120063;-76
2022/05/16 08:55:28;;;;;;;8.02;2.70;;;;;;;21.08;45.42;101624.81;5009397;28;119580;-76
2022/05/16 08:58:01;;;;;;;9.02;2.88;;;;;;;21.05;46.79;101631.38;4991513;28;120175;-76
2022/05/16 09:00:35;;;;;;;8.48;3.25;;;;;;;21.07;47.11;101626.84;5012192;27;119513;-76
2022/05/16 09:03:06;;;;;;;11.30;3.40;;;;;;;21.10;47.60;101625.09;5012781;28;119335;-76
2022/05/16 09:05:37;;;;;;;10.93;3.30;;;;;;;21.13;47.95;101624.84;5012129;28;120122;-76
2022/05/16 09:08:13;;;;;;;13.43;3.28;;;;;;;21.23;47.49;101630.94;4981669;28;119572;-78
2022/05/16 09:10:58;;;;;;;10.32;3.10;;;;;;;21.26;46.81;101637.56;4991139;28;120573;-76
2022/05/16 09:13:48;;;;;;;10.75;2.92;;;;;;;21.18;43.99;101626.13;5010775;27;119647;-76
2022/05/16 09:16:31;;;;;;;6.68;2.50;;;;;;;21.05;44.69;101628.59;5011821;28;119613;-75
2022/05/16 09:19:17;;;;;;;6.72;2.70;;;;;;;20.97;45.21;101633.13;4998787;28;119470;-75
2022/05/16 09:21:48;;;;;;;6.65;2.72;;;;;;;20.94;46.06;101626.53;5005922;27;119717;-75
2022/05/16 09:24:35;;;;;;;10.10;2.83;;;;;;;20.97;46.20;101621.97;4999123;28;119476;-75
2022/05/16 09:27:07;;;;;;;8.57;2.40;;;;;;;20.96;45.94;101620.44;4991772;28;119572;-76
2022/05/16 09:29:37;;;;;;;7.80;2.67;;;;;;;20.94;45.61;101617.41;4987920;28;119705;-75
2022/05/16 09:32:35;;;;;;;12.15;3.20;;;;;;;20.96;46.29;101612.06;5010717;28;120605;-78
2022/05/16 09:35:01;;;;;;;8.23;2.67;;;;;;;20.96;46.52;101615.63;5012474;28;119522;-75
2022/05/16 09:37:28;;;;;;;6.35;2.65;;;;;;;21.06;46.64;101618.97;4974307;28;120294;-75
2022/05/16 09:39:54;;;;;;;8.40;2.72;;;;;;;21.09;45.86;101624.31;4993274;28;120393;-77
2022/05/16 09:42:25;;;;;;;12.43;2.63;;;;;;;21.09;46.24;101621.53;4993371;28;120488;-76
2022/05/16 09:44:53;;;;;;;10.23;2.95;;;;;;;21.06;45.04;101624.56;5004050;28;119513;-75
2022/05/16 09:47:22;;;;;;;8.90;2.70;;;;;;;21.06;46.29;101624.56;5013576;28;119951;-75
2022/05/16 09:50:21;;;;;;;7.95;2.65;;;;;;;21.03;45.96;101633.91;5012647;28;119714;-76
2022/05/16 09:53:07;;;;;;;7.82;2.55;;;;;;;20.98;45.57;101632.63;4951597;28;126014;-75
2022/05/16 09:55:46;;;;;;;11.50;2.90;;;;;;;20.97;46.83;101633.13;5007619;28;119567;-75
2022/05/16 09:58:19;;;;;;;11.25;3.33;;;;;;;21.00;48.02;101626.53;5006926;28;119537;-77
2022/05/16 10:00:57;;;;;;;12.40;3.30;;;;;;;21.06;48.05;101635.72;5007332;28;120573;-75
2022/05/16 10:03:47;;;;;;;8.85;3.20;;;;;;;21.12;48.00;101628.88;4990106;28;120125;-75
2022/05/16 10:06:34;;;;;;;10.85;3.47;;;;;;;21.23;48.89;101628.16;5008202;28;119934;-77
2022/05/16 10:09:14;;;;;;;8.50;3.33;;;;;;;21.28;47.63;101619.06;5012729;27;119998;-78
2022/05/16 10:11:50;;;;;;;7.53;3.00;;;;;;;21.33;48.49;101632.28;5006594;27;120116;-75
2022/05/16 10:14:17;;;;;;;10.60;3.22;;;;;;;21.38;47.56;101625.19;5004665;28;120182;-76
2022/05/16 10:16:47;;;;;;;8.52;3.58;;;;;;;21.39;46.13;101627.47;5007384;28;119699;-75
2022/05/16 10:19:18;;;;;;;9.00;3.22;;;;;;;21.37;46.49;101626.47;5006086;28;120172;-75
2022/05/16 10:21:56;;;;;;;11.05;3.40;;;;;;;21.32;46.62;101630.00;5006454;27;119672;-76
2022/05/16 10:24:31;;;;;;;11.10;3.40;;;;;;;21.30;46.90;101630.50;5006223;28;119870;-75
2022/05/16 10:27:01;;;;;;;11.23;3.63;;;;;;;21.32;47.20;101630.00;5006315;28;119491;-77
2022/05/16 10:29:31;;;;;;;11.00;3.45;;;;;;;21.31;46.06;101623.66;5004901;27;120031;-75
2022/05/16 10:35:07;;;;;;;8.85;3.03;;;;;;;21.30;47.43;101629.75;5008657;28;119990;-75
2022/05/16 10:37:36;;;;;;;13.43;3.38;;;;;;;21.29;47.72;101625.41;5007535;28;119453;-75
2022/05/16 10:40:15;;;;;;;10.60;3.15;;;;;;;21.34;47.65;101619.88;5008041;28;119504;-75
2022/05/16 10:42:50;;;;;;;8.50;3.60;;;;;;;21.37;46.30;101615.31;5005924;28;120108;-75
2022/05/16 10:45:23;;;;;;;8.18;3.08;;;;;;;21.30;46.36;101618.59;5006164;28;119726;-75
2022/05/16 10:47:58;;;;;;;10.20;3.43;;;;;;;21.34;46.44;101627.47;4978391;28;122376;-75
2022/05/16 10:50:34;;;;;;;9.77;3.28;;;;;;;21.36;47.75;101622.91;5006932;28;120439;-75
2022/05/16 10:53:13;;;;;;;8.55;3.10;;;;;;;21.37;46.92;101621.66;4971649;28;120091;-77
2022/05/16 10:56:07;;;;;;;9.13;3.35;;;;;;;21.34;45.49;101617.06;5010330;28;119633;-75
2022/05/16 10:59:10;;;;;;;11.55;3.45;;;;;;;21.30;46.79;101608.19;4990385;28;119998;-75
2022/05/16 11:01:42;;;;;;;9.18;3.45;;;;;;;21.32;47.69;101610.47;4988216;27;120399;-75
2022/05/16 11:04:15;;;;;;;14.15;4.22;;;;;;;21.34;46.87;101600.34;5006289;28;119519;-75
2022/05/16 11:07:31;;;;;;;12.80;4.27;;;;;;;21.34;46.13;101607.94;5008078;28;119911;-74
2022/05/16 11:10:10;;;;;;;10.00;3.60;;;;;;;21.30;46.28;101607.44;4891736;28;122425;-75
2022/05/16 11:12:43;;;;;;;10.40;3.28;;;;;;;21.26;45.71;101609.66;4906104;28;120871;-75
2022/05/16 11:15:26;;;;;;;12.63;4.07;;;;;;;21.20;45.92;101612.44;4976591;28;119780;-75
2022/05/16 11:18:07;;;;;;;10.03;3.87;;;;;;;21.23;45.64;101614.22;5006851;28;120123;-75
2022/05/16 11:20:46;;;;;;;13.07;3.63;;;;;;;21.22;46.49;101612.69;4992136;28;120179;-75
2022/05/16 11:23:46;;;;;;;10.40;3.45;;;;;;;21.27;47.27;101619.56;4989106;28;119990;-74
2022/05/16 11:26:20;;;;;;;10.75;3.75;;;;;;;21.31;46.56;101606.91;4990912;28;120074;-75
2022/05/16 11:29:18;;;;;;;11.48;4.15;;;;;;;21.37;47.22;101604.91;5005960;28;119619;-78
2022/05/16 11:32:24;;;;;;;8.95;3.20;;;;;;;21.42;46.40;101606.94;5004092;28;120735;-77
2022/05/16 11:35:17;;;;;;;11.23;3.60;;;;;;;21.44;45.96;101601.59;4974081;28;120023;-77
2022/05/16 11:38:13;;;;;;;11.50;3.60;;;;;;;21.46;45.50;101601.09;5006678;28;120080;-75
2022/05/16 11:40:58;;;;;;;10.40;3.40;;;;;;;21.42;45.07;101601.34;5007346;28;120132;-75
2022/05/16 11:43:32;;;;;;;8.43;3.13;;;;;;;21.40;45.30;101603.88;5004249;28;120071;-75
2022/05/16 11:46:32;;;;;;;10.27;3.20;;;;;;;21.39;45.13;101599.56;5010462;28;120205;-75
2022/05/16 11:49:19;;;;;;;11.43;3.53;;;;;;;21.34;45.29;101607.94;4985606;28;121390;-74
2022/05/16 11:52:09;;;;;;;7.88;2.72;;;;;;;21.26;44.63;101593.69;4991017;27;120135;-75
2022/05/16 11:54:46;;;;;;;9.02;3.03;;;;;;;21.18;45.13;101583.50;4971649;28;122839;-77